Mount Laguna, California
Current Conditions -  °F | °C
As of 5:53 AM on Saturday 22 Nov 2014 (Local Time) from KRNM Reporting Station
Haze Haze  
Wind Chill: 41°   Ceiling: Unl
Heat Index: 41°   Visibility: 6mi
Dew Point: 40°   Wind: 3mph
Humidity: 96%   Direction: 40°NE
Pressure: 30.08"   Gusts: NA
Location:  32.87°N, 116.42°W
Report Text: KRNM 221353Z AUTO 04003KT 6SM BR CLR 05/04 A3008 RMK AO2 SLP186 T00500044
Loading
Personal Weather Stations






























Interactive Weather Map New forecast layout! Learn more

10-Day Weather Forecast

Advertisements
Track Severe Weather on mobile